EJU61N EHAM-LGRP
Flight info
| Callsign | EJU61N |
|---|---|
| Flight time | 3h 12m |
| Altitude | 35000 |
| Route | EDUPO Z739 MISGO DCT DOJOH DCT DODEN DCT NEGIX DCT DINKU DCT BESNI DCT LATLO DCT OBEDI DCT NAKUM DCT OLEZE DCT TEBLI DCT MEDUX UM867 KOGAT DCT ERANA DCT TSL UN130 MES UN139 LURUS UL995 CODIC |
| Aircraft | A320/M-SDE3FGHIRWY/LB1 |
Departure
| Time | 2026-05-05 06:24 |
|---|---|
| Airport | Amsterdam Airport Schiphol (EHAM) |
Arrival
| Time | 2026-05-05 09:37 |
|---|---|
| Airport | Rhodes International Airport "Diagoras" (LGRP) |
| Time | Latitude | Longitude | Altitude | Speed | Heading |
|---|---|---|---|---|---|
| 2026-05-05 06:12 | 52.31008 | 4.75405 | -1 ft | 0 kts | 148° |
| 2026-05-05 06:12 | 52.31004 | 4.75411 | 0 ft | 0 kts | 148° |
| 2026-05-05 06:17 | 52.31008 | 4.75407 | -1 ft | 4 kts | 149° |
| 2026-05-05 06:17 | 52.31032 | 4.75386 | 1 ft | 4 kts | 147° |
| 2026-05-05 06:17 | 52.31042 | 4.75366 | -1 ft | 3 kts | 77° |
| 2026-05-05 06:18 | 52.31037 | 4.75341 | -1 ft | 0 kts | 70° |
| 2026-05-05 06:20 | 52.31047 | 4.75369 | -1 ft | 9 kts | 61° |
| 2026-05-05 06:21 | 52.31087 | 4.75467 | -1 ft | 11 kts | 47° |
| 2026-05-05 06:21 | 52.31159 | 4.75496 | -1 ft | 12 kts | 356° |
| 2026-05-05 06:21 | 52.31268 | 4.75484 | -1 ft | 17 kts | 356° |
| 2026-05-05 06:21 | 52.31385 | 4.75475 | -1 ft | 17 kts | 357° |
| 2026-05-05 06:22 | 52.31480 | 4.75465 | -1 ft | 10 kts | 353° |
| 2026-05-05 06:22 | 52.31509 | 4.75382 | -1 ft | 10 kts | 269° |
| 2026-05-05 06:22 | 52.31503 | 4.75221 | -1 ft | 20 kts | 268° |
| 2026-05-05 06:22 | 52.31497 | 4.74997 | -1 ft | 19 kts | 266° |
| 2026-05-05 06:23 | 52.31489 | 4.74785 | -1 ft | 15 kts | 266° |
| 2026-05-05 06:23 | 52.31535 | 4.74666 | -1 ft | 13 kts | 351° |
| 2026-05-05 06:23 | 52.31630 | 4.74669 | 0 ft | 14 kts | 18° |
| 2026-05-05 06:23 | 52.31668 | 4.74800 | -1 ft | 15 kts | 87° |
| 2026-05-05 06:24 | 52.31680 | 4.75147 | -3 ft | 60 kts | 86° |
| 2026-05-05 06:24 | 52.31716 | 4.76181 | 0 ft | 120 kts | 86° |
| 2026-05-05 06:24 | 52.31774 | 4.77809 | 45 ft | 161 kts | 86° |
| 2026-05-05 06:24 | 52.31809 | 4.79559 | 841 ft | 145 kts | 85° |
| 2026-05-05 06:25 | 52.31850 | 4.81217 | 1400 ft | 156 kts | 87° |
| 2026-05-05 06:25 | 52.31904 | 4.83111 | 1676 ft | 177 kts | 83° |
| 2026-05-05 06:25 | 52.31989 | 4.85240 | 1900 ft | 199 kts | 84° |
| 2026-05-05 06:25 | 52.31818 | 4.87636 | 2174 ft | 229 kts | 107° |
| 2026-05-05 06:26 | 52.31186 | 4.90168 | 2626 ft | 249 kts | 110° |
| 2026-05-05 06:26 | 52.30489 | 4.92817 | 3347 ft | 258 kts | 111° |
| 2026-05-05 06:26 | 52.29765 | 4.95532 | 4119 ft | 263 kts | 112° |
| 2026-05-05 06:26 | 52.29152 | 4.98367 | 4933 ft | 267 kts | 107° |
| 2026-05-05 06:27 | 52.28617 | 5.01301 | 5715 ft | 271 kts | 105° |
| 2026-05-05 06:27 | 52.27592 | 5.07337 | 7236 ft | 280 kts | 105° |
| 2026-05-05 06:27 | 52.27075 | 5.10388 | 7941 ft | 285 kts | 105° |
| 2026-05-05 06:28 | 52.26528 | 5.13578 | 8653 ft | 291 kts | 105° |
| 2026-05-05 06:28 | 52.25979 | 5.16735 | 9363 ft | 296 kts | 105° |
| 2026-05-05 06:28 | 52.25409 | 5.19990 | 10086 ft | 299 kts | 106° |
| 2026-05-05 06:28 | 52.24789 | 5.23350 | 10372 ft | 320 kts | 110° |
| 2026-05-05 06:29 | 52.23844 | 5.26784 | 10529 ft | 343 kts | 119° |
| 2026-05-05 06:29 | 52.22499 | 5.30150 | 10663 ft | 365 kts | 126° |
| 2026-05-05 06:29 | 52.20997 | 5.33591 | 10979 ft | 378 kts | 126° |
| 2026-05-05 06:29 | 52.19461 | 5.37109 | 11593 ft | 382 kts | 126° |
| 2026-05-05 06:30 | 52.17917 | 5.40654 | 12222 ft | 386 kts | 126° |
| 2026-05-05 06:30 | 52.16348 | 5.44252 | 12806 ft | 390 kts | 125° |
| 2026-05-05 06:30 | 52.14769 | 5.47866 | 13447 ft | 393 kts | 124° |
| 2026-05-05 06:30 | 52.13176 | 5.51511 | 14022 ft | 396 kts | 124° |
| 2026-05-05 06:31 | 52.11574 | 5.55174 | 14611 ft | 398 kts | 124° |
| 2026-05-05 06:31 | 52.09960 | 5.58857 | 15154 ft | 400 kts | 125° |
| 2026-05-05 06:31 | 52.08343 | 5.62545 | 15689 ft | 403 kts | 125° |
| 2026-05-05 06:31 | 52.06704 | 5.66277 | 16141 ft | 407 kts | 126° |
| 2026-05-05 06:32 | 52.04912 | 5.69872 | 16611 ft | 411 kts | 131° |
| 2026-05-05 06:32 | 52.03027 | 5.73400 | 17124 ft | 414 kts | 131° |
| 2026-05-05 06:32 | 52.01126 | 5.76943 | 17596 ft | 417 kts | 131° |
| 2026-05-05 06:32 | 51.99236 | 5.80452 | 18091 ft | 420 kts | 131° |
| 2026-05-05 06:33 | 51.97282 | 5.84079 | 18530 ft | 423 kts | 131° |
| 2026-05-05 06:33 | 51.95376 | 5.87629 | 18980 ft | 424 kts | 131° |
| 2026-05-05 06:33 | 51.93408 | 5.91302 | 19334 ft | 428 kts | 131° |
| 2026-05-05 06:33 | 51.91473 | 5.94912 | 19735 ft | 431 kts | 132° |
| 2026-05-05 06:34 | 51.89503 | 5.98583 | 20129 ft | 434 kts | 132° |
| 2026-05-05 06:34 | 51.87517 | 6.02279 | 20524 ft | 436 kts | 132° |
| 2026-05-05 06:34 | 51.85522 | 6.05989 | 20967 ft | 437 kts | 132° |
| 2026-05-05 06:34 | 51.83522 | 6.09695 | 21364 ft | 439 kts | 133° |
| 2026-05-05 06:35 | 51.81501 | 6.13416 | 21769 ft | 441 kts | 133° |
| 2026-05-05 06:35 | 51.79466 | 6.17143 | 22147 ft | 443 kts | 133° |
| 2026-05-05 06:35 | 51.77416 | 6.20884 | 22506 ft | 446 kts | 133° |
| 2026-05-05 06:35 | 51.75359 | 6.24637 | 22853 ft | 448 kts | 134° |
| 2026-05-05 06:36 | 51.73287 | 6.28416 | 23192 ft | 450 kts | 134° |
| 2026-05-05 06:36 | 51.71202 | 6.32213 | 23502 ft | 453 kts | 134° |
| 2026-05-05 06:36 | 51.69106 | 6.36031 | 23769 ft | 456 kts | 134° |
| 2026-05-05 06:36 | 51.66994 | 6.39873 | 24061 ft | 458 kts | 134° |
| 2026-05-05 06:37 | 51.64873 | 6.43721 | 24369 ft | 460 kts | 134° |
| 2026-05-05 06:37 | 51.62739 | 6.47584 | 24641 ft | 462 kts | 134° |
| 2026-05-05 06:37 | 51.60602 | 6.51453 | 24922 ft | 464 kts | 134° |
| 2026-05-05 06:37 | 51.58478 | 6.55293 | 25197 ft | 465 kts | 134° |
| 2026-05-05 06:38 | 51.56322 | 6.59188 | 25466 ft | 467 kts | 134° |
| 2026-05-05 06:38 | 51.54163 | 6.63087 | 25736 ft | 468 kts | 135° |
| 2026-05-05 06:38 | 51.51990 | 6.66996 | 25995 ft | 470 kts | 135° |
| 2026-05-05 06:38 | 51.49801 | 6.70919 | 26251 ft | 471 kts | 135° |
| 2026-05-05 06:39 | 51.47608 | 6.74838 | 26510 ft | 473 kts | 135° |
| 2026-05-05 06:39 | 51.45398 | 6.78783 | 26725 ft | 476 kts | 135° |
| 2026-05-05 06:39 | 51.43178 | 6.82744 | 26964 ft | 477 kts | 135° |
| 2026-05-05 06:39 | 51.40952 | 6.86718 | 27211 ft | 479 kts | 136° |
| 2026-05-05 06:40 | 51.38682 | 6.90611 | 27526 ft | 478 kts | 138° |
| 2026-05-05 06:40 | 51.36343 | 6.94369 | 27923 ft | 475 kts | 140° |
| 2026-05-05 06:40 | 51.33960 | 6.98023 | 28399 ft | 471 kts | 141° |
| 2026-05-05 06:40 | 51.31582 | 7.01589 | 28836 ft | 469 kts | 141° |
| 2026-05-05 06:41 | 51.29199 | 7.05157 | 29256 ft | 468 kts | 141° |
| 2026-05-05 06:41 | 51.26836 | 7.08731 | 29636 ft | 467 kts | 141° |
| 2026-05-05 06:41 | 51.24519 | 7.12273 | 30025 ft | 466 kts | 141° |
| 2026-05-05 06:41 | 51.22186 | 7.15864 | 30322 ft | 465 kts | 141° |
| 2026-05-05 06:42 | 51.19860 | 7.19459 | 30604 ft | 465 kts | 141° |
| 2026-05-05 06:42 | 51.17537 | 7.23043 | 30884 ft | 465 kts | 141° |
| 2026-05-05 06:42 | 51.15215 | 7.26620 | 31173 ft | 464 kts | 141° |
| 2026-05-05 06:42 | 51.12890 | 7.30188 | 31462 ft | 463 kts | 141° |
| 2026-05-05 06:43 | 51.10569 | 7.33739 | 31761 ft | 463 kts | 141° |
| 2026-05-05 06:43 | 51.08256 | 7.37278 | 32132 ft | 460 kts | 142° |
| 2026-05-05 06:43 | 51.05955 | 7.40800 | 32474 ft | 458 kts | 142° |
| 2026-05-05 06:43 | 51.03652 | 7.44320 | 32778 ft | 457 kts | 142° |
| 2026-05-05 06:44 | 51.01360 | 7.47809 | 33064 ft | 457 kts | 142° |
| 2026-05-05 06:44 | 50.99091 | 7.51250 | 33352 ft | 456 kts | 142° |
| 2026-05-05 06:44 | 50.96796 | 7.54720 | 33641 ft | 455 kts | 142° |
| 2026-05-05 06:44 | 50.94505 | 7.58180 | 33912 ft | 455 kts | 142° |
| 2026-05-05 06:45 | 50.92221 | 7.61638 | 34162 ft | 454 kts | 142° |
| 2026-05-05 06:45 | 50.89938 | 7.65098 | 34398 ft | 453 kts | 142° |
| 2026-05-05 06:45 | 50.87659 | 7.68542 | 34619 ft | 453 kts | 142° |
| 2026-05-05 06:45 | 50.85379 | 7.71977 | 34834 ft | 453 kts | 142° |
| 2026-05-05 06:46 | 50.83093 | 7.75412 | 34904 ft | 454 kts | 142° |
| 2026-05-05 06:46 | 50.78487 | 7.82278 | 34914 ft | 455 kts | 142° |
| 2026-05-05 06:47 | 50.73866 | 7.89133 | 34920 ft | 455 kts | 142° |
| 2026-05-05 06:47 | 50.69252 | 7.95987 | 34904 ft | 455 kts | 143° |
| 2026-05-05 06:48 | 50.64641 | 8.02824 | 34918 ft | 455 kts | 143° |
| 2026-05-05 06:48 | 50.60097 | 8.09679 | 34899 ft | 458 kts | 137° |
| 2026-05-05 06:49 | 50.56063 | 8.17523 | 34911 ft | 460 kts | 134° |
| 2026-05-05 06:49 | 50.52076 | 8.25375 | 34911 ft | 459 kts | 135° |
| 2026-05-05 06:50 | 50.48083 | 8.33195 | 34911 ft | 458 kts | 135° |
| 2026-05-05 06:50 | 50.44094 | 8.40988 | 34888 ft | 457 kts | 135° |
| 2026-05-05 06:51 | 50.40124 | 8.48716 | 34893 ft | 457 kts | 135° |
| 2026-05-05 06:51 | 50.36079 | 8.56379 | 34888 ft | 455 kts | 137° |
| 2026-05-05 06:52 | 50.31786 | 8.63622 | 34879 ft | 452 kts | 140° |
| 2026-05-05 06:52 | 50.27415 | 8.70674 | 34895 ft | 451 kts | 140° |
| 2026-05-05 06:53 | 50.23087 | 8.77785 | 34901 ft | 451 kts | 139° |
| 2026-05-05 06:53 | 50.18803 | 8.84936 | 34900 ft | 450 kts | 139° |
| 2026-05-05 06:54 | 50.14553 | 8.92027 | 34897 ft | 450 kts | 139° |
| 2026-05-05 06:54 | 50.10258 | 8.99123 | 34894 ft | 449 kts | 139° |
| 2026-05-05 06:55 | 50.05959 | 9.06192 | 34881 ft | 449 kts | 139° |
| 2026-05-05 06:55 | 50.01667 | 9.13247 | 34892 ft | 448 kts | 139° |
| 2026-05-05 06:56 | 49.97379 | 9.20279 | 34877 ft | 448 kts | 139° |
| 2026-05-05 06:56 | 49.93086 | 9.27303 | 34879 ft | 448 kts | 139° |
| 2026-05-05 06:57 | 49.88853 | 9.34226 | 34880 ft | 447 kts | 139° |
| 2026-05-05 06:57 | 49.84561 | 9.41212 | 34881 ft | 447 kts | 139° |
| 2026-05-05 06:58 | 49.80989 | 9.47000 | 34876 ft | 447 kts | 139° |
| 2026-05-05 06:58 | 49.75989 | 9.55080 | 34865 ft | 446 kts | 139° |
| 2026-05-05 06:59 | 49.72414 | 9.60839 | 34865 ft | 446 kts | 139° |
| 2026-05-05 06:59 | 49.68109 | 9.67758 | 34868 ft | 447 kts | 139° |
| 2026-05-05 07:00 | 49.63799 | 9.74680 | 34871 ft | 447 kts | 139° |
| 2026-05-05 07:00 | 49.59487 | 9.81590 | 34879 ft | 447 kts | 139° |
| 2026-05-05 07:01 | 49.55173 | 9.88479 | 34886 ft | 447 kts | 139° |
| 2026-05-05 07:01 | 49.50853 | 9.95362 | 34862 ft | 447 kts | 139° |
| 2026-05-05 07:02 | 49.46541 | 10.02209 | 34873 ft | 447 kts | 139° |
| 2026-05-05 07:02 | 49.42204 | 10.09074 | 34873 ft | 448 kts | 139° |
| 2026-05-05 07:03 | 49.37871 | 10.15933 | 34875 ft | 448 kts | 139° |
| 2026-05-05 07:03 | 49.33511 | 10.22790 | 34881 ft | 448 kts | 139° |
| 2026-05-05 07:04 | 49.29159 | 10.29611 | 34874 ft | 448 kts | 139° |
| 2026-05-05 07:04 | 49.24799 | 10.36430 | 34889 ft | 448 kts | 139° |
| 2026-05-05 07:05 | 49.20400 | 10.43202 | 34889 ft | 447 kts | 140° |
| 2026-05-05 07:05 | 49.15963 | 10.49771 | 34895 ft | 447 kts | 141° |
| 2026-05-05 07:06 | 49.11480 | 10.56353 | 34896 ft | 447 kts | 141° |
| 2026-05-05 07:06 | 49.07009 | 10.62939 | 34897 ft | 447 kts | 141° |
| 2026-05-05 07:07 | 49.02540 | 10.69525 | 34873 ft | 447 kts | 140° |
| 2026-05-05 07:07 | 48.98061 | 10.76124 | 34879 ft | 447 kts | 140° |
| 2026-05-05 07:08 | 48.93580 | 10.82705 | 34879 ft | 447 kts | 140° |
| 2026-05-05 07:08 | 48.89101 | 10.89257 | 34878 ft | 447 kts | 140° |
| 2026-05-05 07:09 | 48.84643 | 10.95768 | 34880 ft | 447 kts | 140° |
| 2026-05-05 07:09 | 48.80153 | 11.02305 | 34868 ft | 447 kts | 140° |
| 2026-05-05 07:10 | 48.75652 | 11.08851 | 34873 ft | 448 kts | 140° |
| 2026-05-05 07:10 | 48.71151 | 11.15372 | 34879 ft | 447 kts | 140° |
| 2026-05-05 07:11 | 48.66647 | 11.21877 | 34884 ft | 447 kts | 140° |
| 2026-05-05 07:11 | 48.62193 | 11.28467 | 34880 ft | 449 kts | 137° |
| 2026-05-05 07:12 | 48.58008 | 11.35442 | 34871 ft | 451 kts | 135° |
| 2026-05-05 07:12 | 48.53879 | 11.42576 | 34873 ft | 451 kts | 135° |
| 2026-05-05 07:13 | 48.49688 | 11.49623 | 34865 ft | 451 kts | 136° |
| 2026-05-05 07:13 | 48.45447 | 11.56583 | 34875 ft | 451 kts | 136° |
| 2026-05-05 07:14 | 48.41209 | 11.63533 | 34882 ft | 451 kts | 136° |
| 2026-05-05 07:14 | 48.36972 | 11.70493 | 34873 ft | 450 kts | 136° |
| 2026-05-05 07:15 | 48.32742 | 11.77436 | 34873 ft | 450 kts | 136° |
| 2026-05-05 07:15 | 48.28527 | 11.84318 | 34876 ft | 450 kts | 136° |
| 2026-05-05 07:16 | 48.24280 | 11.91230 | 34877 ft | 451 kts | 136° |
| 2026-05-05 07:16 | 48.20024 | 11.98145 | 34874 ft | 451 kts | 136° |
| 2026-05-05 07:17 | 48.15763 | 12.05043 | 34852 ft | 451 kts | 136° |
| 2026-05-05 07:17 | 48.11488 | 12.11950 | 34854 ft | 451 kts | 136° |
| 2026-05-05 07:18 | 48.07223 | 12.18848 | 34867 ft | 452 kts | 136° |
| 2026-05-05 07:18 | 48.02947 | 12.25749 | 34862 ft | 452 kts | 136° |
| 2026-05-05 07:19 | 47.98686 | 12.32578 | 34857 ft | 452 kts | 136° |
| 2026-05-05 07:19 | 47.94386 | 12.39446 | 34867 ft | 452 kts | 136° |
| 2026-05-05 07:20 | 47.90088 | 12.46300 | 34861 ft | 452 kts | 136° |
| 2026-05-05 07:20 | 47.85784 | 12.53152 | 34860 ft | 452 kts | 136° |
| 2026-05-05 07:21 | 47.81479 | 12.59990 | 34863 ft | 452 kts | 136° |
| 2026-05-05 07:21 | 47.77203 | 12.66775 | 34879 ft | 453 kts | 136° |
| 2026-05-05 07:22 | 47.72888 | 12.73594 | 34866 ft | 452 kts | 136° |
| 2026-05-05 07:22 | 47.68570 | 12.80388 | 34864 ft | 453 kts | 136° |
| 2026-05-05 07:23 | 47.64156 | 12.87093 | 34871 ft | 453 kts | 138° |
| 2026-05-05 07:23 | 47.59665 | 12.93649 | 34874 ft | 453 kts | 139° |
| 2026-05-05 07:24 | 47.55203 | 13.00149 | 34875 ft | 453 kts | 138° |
| 2026-05-05 07:24 | 47.50719 | 13.06730 | 34862 ft | 453 kts | 138° |
| 2026-05-05 07:25 | 47.46247 | 13.13318 | 34875 ft | 454 kts | 138° |
| 2026-05-05 07:25 | 47.41758 | 13.19904 | 34884 ft | 454 kts | 138° |
| 2026-05-05 07:26 | 47.37273 | 13.26455 | 34901 ft | 454 kts | 138° |
| 2026-05-05 07:26 | 47.32782 | 13.33003 | 34913 ft | 454 kts | 137° |
| 2026-05-05 07:27 | 47.28542 | 13.39860 | 34905 ft | 456 kts | 133° |
| 2026-05-05 07:27 | 47.24493 | 13.47068 | 34923 ft | 457 kts | 132° |
| 2026-05-05 07:28 | 47.20433 | 13.54277 | 34916 ft | 457 kts | 133° |
| 2026-05-05 07:28 | 47.16294 | 13.61393 | 34923 ft | 456 kts | 134° |
| 2026-05-05 07:29 | 47.12131 | 13.68436 | 34946 ft | 456 kts | 134° |
| 2026-05-05 07:29 | 47.07995 | 13.75448 | 34946 ft | 458 kts | 133° |
| 2026-05-05 07:30 | 47.03831 | 13.82519 | 34959 ft | 458 kts | 134° |
| 2026-05-05 07:30 | 46.97580 | 13.93103 | 34957 ft | 458 kts | 134° |
| 2026-05-05 07:31 | 46.93403 | 14.00149 | 34959 ft | 458 kts | 134° |
| 2026-05-05 07:31 | 46.89217 | 14.07190 | 34950 ft | 459 kts | 134° |
| 2026-05-05 07:32 | 46.85016 | 14.14235 | 34953 ft | 460 kts | 134° |
| 2026-05-05 07:32 | 46.80812 | 14.21280 | 34960 ft | 460 kts | 134° |
| 2026-05-05 07:33 | 46.76591 | 14.28321 | 34961 ft | 461 kts | 134° |
| 2026-05-05 07:33 | 46.72394 | 14.35301 | 34963 ft | 461 kts | 134° |
| 2026-05-05 07:34 | 46.68097 | 14.42240 | 34963 ft | 461 kts | 135° |
| 2026-05-05 07:34 | 46.63721 | 14.49057 | 34955 ft | 461 kts | 136° |
| 2026-05-05 07:35 | 46.59329 | 14.55888 | 34963 ft | 462 kts | 135° |
| 2026-05-05 07:35 | 46.54950 | 14.62751 | 34972 ft | 463 kts | 135° |
| 2026-05-05 07:36 | 46.50576 | 14.69631 | 34981 ft | 463 kts | 135° |
| 2026-05-05 07:36 | 46.46222 | 14.76453 | 34992 ft | 463 kts | 135° |
| 2026-05-05 07:37 | 46.41819 | 14.83295 | 34989 ft | 463 kts | 135° |
| 2026-05-05 07:37 | 46.37413 | 14.90130 | 34983 ft | 465 kts | 135° |
| 2026-05-05 07:38 | 46.33001 | 14.96970 | 34979 ft | 465 kts | 135° |
| 2026-05-05 07:38 | 46.28576 | 15.03816 | 34994 ft | 465 kts | 135° |
| 2026-05-05 07:39 | 46.24172 | 15.10599 | 34998 ft | 465 kts | 135° |
| 2026-05-05 07:39 | 46.19744 | 15.17414 | 35012 ft | 465 kts | 135° |
| 2026-05-05 07:40 | 46.15299 | 15.24226 | 35015 ft | 465 kts | 135° |
| 2026-05-05 07:40 | 46.10856 | 15.31021 | 34997 ft | 465 kts | 135° |
| 2026-05-05 07:41 | 46.06425 | 15.37817 | 35005 ft | 465 kts | 135° |
| 2026-05-05 07:41 | 46.02001 | 15.44633 | 35001 ft | 466 kts | 135° |
| 2026-05-05 07:42 | 45.97570 | 15.51451 | 35003 ft | 466 kts | 135° |
| 2026-05-05 07:42 | 45.93168 | 15.58196 | 35008 ft | 466 kts | 135° |
| 2026-05-05 07:43 | 45.88728 | 15.64975 | 35006 ft | 466 kts | 135° |
| 2026-05-05 07:43 | 45.84282 | 15.71747 | 35009 ft | 466 kts | 135° |
| 2026-05-05 07:44 | 45.79829 | 15.78504 | 35016 ft | 465 kts | 135° |
| 2026-05-05 07:44 | 45.75382 | 15.85243 | 35019 ft | 465 kts | 135° |
| 2026-05-05 07:45 | 45.70935 | 15.91969 | 35019 ft | 466 kts | 135° |
| 2026-05-05 07:45 | 45.66472 | 15.98693 | 35028 ft | 466 kts | 135° |
| 2026-05-05 07:46 | 45.62036 | 16.05364 | 35024 ft | 466 kts | 135° |
| 2026-05-05 07:46 | 45.57567 | 16.12083 | 35029 ft | 466 kts | 135° |
| 2026-05-05 07:47 | 45.53085 | 16.18795 | 35024 ft | 467 kts | 136° |
| 2026-05-05 07:47 | 45.48589 | 16.25507 | 35030 ft | 467 kts | 136° |
| 2026-05-05 07:48 | 45.44087 | 16.32205 | 35029 ft | 467 kts | 136° |
| 2026-05-05 07:48 | 45.40343 | 16.37757 | 35036 ft | 467 kts | 136° |
| 2026-05-05 07:49 | 45.35102 | 16.45529 | 35019 ft | 468 kts | 136° |
| 2026-05-05 07:49 | 45.31348 | 16.51087 | 35027 ft | 468 kts | 136° |
| 2026-05-05 07:50 | 45.26088 | 16.58846 | 35031 ft | 468 kts | 136° |
| 2026-05-05 07:50 | 45.22294 | 16.64414 | 35034 ft | 469 kts | 136° |
| 2026-05-05 07:51 | 45.17774 | 16.71018 | 35043 ft | 469 kts | 136° |
| 2026-05-05 07:51 | 45.13213 | 16.77621 | 35039 ft | 469 kts | 136° |
| 2026-05-05 07:52 | 45.08641 | 16.84217 | 35038 ft | 469 kts | 136° |
| 2026-05-05 07:52 | 45.04066 | 16.90807 | 35042 ft | 470 kts | 136° |
| 2026-05-05 07:53 | 44.99481 | 16.97394 | 35039 ft | 470 kts | 136° |
| 2026-05-05 07:53 | 44.94892 | 17.03974 | 35036 ft | 470 kts | 136° |
| 2026-05-05 07:54 | 44.90301 | 17.10549 | 35028 ft | 470 kts | 136° |
| 2026-05-05 07:54 | 44.85705 | 17.17118 | 35022 ft | 471 kts | 136° |
| 2026-05-05 07:55 | 44.81124 | 17.23628 | 35032 ft | 471 kts | 137° |
| 2026-05-05 07:55 | 44.76506 | 17.30169 | 35041 ft | 470 kts | 136° |
| 2026-05-05 07:56 | 44.71886 | 17.36707 | 35039 ft | 471 kts | 136° |
| 2026-05-05 07:56 | 44.67255 | 17.43245 | 35040 ft | 472 kts | 136° |
| 2026-05-05 07:57 | 44.62623 | 17.49776 | 35050 ft | 472 kts | 136° |
| 2026-05-05 07:57 | 44.57987 | 17.56295 | 35054 ft | 472 kts | 137° |
| 2026-05-05 07:58 | 44.53369 | 17.62769 | 35050 ft | 472 kts | 136° |
| 2026-05-05 07:58 | 44.48720 | 17.69279 | 35053 ft | 473 kts | 137° |
| 2026-05-05 07:59 | 44.44057 | 17.75790 | 35061 ft | 473 kts | 137° |
| 2026-05-05 07:59 | 44.39398 | 17.82280 | 35065 ft | 473 kts | 137° |
| 2026-05-05 08:00 | 44.34723 | 17.88758 | 35061 ft | 473 kts | 137° |
| 2026-05-05 08:00 | 44.30041 | 17.95245 | 35066 ft | 474 kts | 137° |
| 2026-05-05 08:01 | 44.25379 | 18.01700 | 35065 ft | 474 kts | 137° |
| 2026-05-05 08:01 | 44.20685 | 18.08175 | 35071 ft | 474 kts | 137° |
| 2026-05-05 08:02 | 44.15990 | 18.14647 | 35070 ft | 475 kts | 136° |
| 2026-05-05 08:02 | 44.11282 | 18.21119 | 35079 ft | 476 kts | 137° |
| 2026-05-05 08:03 | 44.06562 | 18.27576 | 35081 ft | 476 kts | 137° |
| 2026-05-05 08:03 | 44.01859 | 18.33988 | 35089 ft | 476 kts | 137° |
| 2026-05-05 08:04 | 43.97127 | 18.40436 | 35096 ft | 476 kts | 137° |
| 2026-05-05 08:04 | 43.92392 | 18.46868 | 35104 ft | 476 kts | 137° |
| 2026-05-05 08:05 | 43.87661 | 18.53302 | 35107 ft | 476 kts | 137° |
| 2026-05-05 08:05 | 43.82918 | 18.59726 | 35087 ft | 476 kts | 137° |
| 2026-05-05 08:06 | 43.78172 | 18.66135 | 35105 ft | 477 kts | 137° |
| 2026-05-05 08:06 | 43.73406 | 18.72551 | 35095 ft | 478 kts | 137° |
| 2026-05-05 08:07 | 43.68666 | 18.78925 | 35098 ft | 478 kts | 137° |
| 2026-05-05 08:07 | 43.63890 | 18.85330 | 35095 ft | 478 kts | 137° |
| 2026-05-05 08:08 | 43.59104 | 18.91727 | 35086 ft | 479 kts | 137° |
| 2026-05-05 08:08 | 43.54314 | 18.98111 | 35085 ft | 480 kts | 137° |
| 2026-05-05 08:09 | 43.49517 | 19.04506 | 35089 ft | 480 kts | 137° |
| 2026-05-05 08:09 | 43.44707 | 19.10905 | 35099 ft | 481 kts | 137° |
| 2026-05-05 08:10 | 43.39886 | 19.17294 | 35105 ft | 481 kts | 137° |
| 2026-05-05 08:10 | 43.35056 | 19.23678 | 35107 ft | 481 kts | 137° |
| 2026-05-05 08:11 | 43.30219 | 19.30054 | 35099 ft | 482 kts | 137° |
| 2026-05-05 08:11 | 43.25374 | 19.36440 | 35097 ft | 483 kts | 137° |
| 2026-05-05 08:12 | 43.20548 | 19.42772 | 35094 ft | 484 kts | 137° |
| 2026-05-05 08:12 | 43.15676 | 19.49146 | 35116 ft | 484 kts | 137° |
| 2026-05-05 08:13 | 43.10804 | 19.55513 | 35109 ft | 484 kts | 137° |
| 2026-05-05 08:13 | 43.05933 | 19.61877 | 35116 ft | 484 kts | 137° |
| 2026-05-05 08:14 | 43.01051 | 19.68244 | 35119 ft | 485 kts | 137° |
| 2026-05-05 08:14 | 42.96158 | 19.74592 | 35123 ft | 485 kts | 137° |
| 2026-05-05 08:15 | 42.91268 | 19.80929 | 35126 ft | 485 kts | 137° |
| 2026-05-05 08:15 | 42.86361 | 19.87261 | 35119 ft | 485 kts | 137° |
| 2026-05-05 08:16 | 42.81448 | 19.93590 | 35118 ft | 486 kts | 137° |
| 2026-05-05 08:16 | 42.76551 | 19.99884 | 35114 ft | 487 kts | 137° |
| 2026-05-05 08:17 | 42.72020 | 20.06717 | 35116 ft | 487 kts | 129° |
| 2026-05-05 08:17 | 42.67720 | 20.13848 | 35137 ft | 488 kts | 129° |
| 2026-05-05 08:18 | 42.63399 | 20.20958 | 35131 ft | 489 kts | 129° |
| 2026-05-05 08:18 | 42.59058 | 20.28075 | 35121 ft | 489 kts | 129° |
| 2026-05-05 08:19 | 42.54710 | 20.35194 | 35122 ft | 490 kts | 129° |
| 2026-05-05 08:19 | 42.50364 | 20.42318 | 35128 ft | 491 kts | 129° |
| 2026-05-05 08:20 | 42.46002 | 20.49444 | 35144 ft | 491 kts | 129° |
| 2026-05-05 08:20 | 42.41662 | 20.56511 | 35138 ft | 492 kts | 129° |
| 2026-05-05 08:21 | 42.37276 | 20.63630 | 35138 ft | 492 kts | 129° |
| 2026-05-05 08:21 | 42.32881 | 20.70741 | 35139 ft | 492 kts | 129° |
| 2026-05-05 08:22 | 42.28493 | 20.77846 | 35129 ft | 493 kts | 129° |
| 2026-05-05 08:22 | 42.24090 | 20.84955 | 35143 ft | 493 kts | 129° |
| 2026-05-05 08:23 | 42.19678 | 20.92056 | 35144 ft | 494 kts | 129° |
| 2026-05-05 08:23 | 42.15253 | 20.99148 | 35145 ft | 494 kts | 129° |
| 2026-05-05 08:24 | 42.10770 | 21.06148 | 35136 ft | 493 kts | 135° |
| 2026-05-05 08:24 | 42.05814 | 21.12472 | 35144 ft | 494 kts | 136° |
| 2026-05-05 08:25 | 42.00815 | 21.18812 | 35144 ft | 494 kts | 136° |
| 2026-05-05 08:25 | 41.95808 | 21.25153 | 35144 ft | 495 kts | 136° |
| 2026-05-05 08:26 | 41.90802 | 21.31496 | 35138 ft | 494 kts | 136° |
| 2026-05-05 08:26 | 41.85788 | 21.37828 | 35133 ft | 494 kts | 136° |
| 2026-05-05 08:27 | 41.80762 | 21.44150 | 35130 ft | 494 kts | 136° |
| 2026-05-05 08:27 | 41.75734 | 21.50447 | 35126 ft | 495 kts | 136° |
| 2026-05-05 08:28 | 41.70699 | 21.56756 | 35119 ft | 496 kts | 136° |
| 2026-05-05 08:28 | 41.65660 | 21.63063 | 35125 ft | 497 kts | 136° |
| 2026-05-05 08:29 | 41.60637 | 21.69324 | 35133 ft | 497 kts | 136° |
| 2026-05-05 08:30 | 41.53033 | 21.78769 | 35144 ft | 498 kts | 136° |
| 2026-05-05 08:30 | 41.47956 | 21.85048 | 35148 ft | 497 kts | 136° |
| 2026-05-05 08:31 | 41.42882 | 21.91322 | 35151 ft | 497 kts | 136° |
| 2026-05-05 08:31 | 41.37808 | 21.97598 | 35147 ft | 497 kts | 136° |
| 2026-05-05 08:32 | 41.32729 | 22.03857 | 35143 ft | 497 kts | 137° |
| 2026-05-05 08:32 | 41.27675 | 22.10061 | 35137 ft | 497 kts | 136° |
| 2026-05-05 08:33 | 41.22590 | 22.16292 | 35145 ft | 497 kts | 136° |
| 2026-05-05 08:33 | 41.17500 | 22.22513 | 35135 ft | 497 kts | 136° |
| 2026-05-05 08:34 | 41.12344 | 22.28514 | 35129 ft | 497 kts | 140° |
| 2026-05-05 08:34 | 41.06939 | 22.34237 | 35117 ft | 497 kts | 142° |
| 2026-05-05 08:35 | 41.01485 | 22.39904 | 35114 ft | 497 kts | 141° |
| 2026-05-05 08:35 | 40.96092 | 22.45642 | 35110 ft | 497 kts | 141° |
| 2026-05-05 08:36 | 40.90720 | 22.51428 | 35115 ft | 497 kts | 140° |
| 2026-05-05 08:36 | 40.85351 | 22.57185 | 35113 ft | 497 kts | 140° |
| 2026-05-05 08:37 | 40.79968 | 22.62912 | 35109 ft | 496 kts | 141° |
| 2026-05-05 08:37 | 40.74624 | 22.68589 | 35103 ft | 496 kts | 141° |
| 2026-05-05 08:38 | 40.69236 | 22.74294 | 35090 ft | 496 kts | 141° |
| 2026-05-05 08:38 | 40.63837 | 22.79998 | 35105 ft | 497 kts | 141° |
| 2026-05-05 08:39 | 40.59352 | 22.84734 | 35096 ft | 497 kts | 141° |
| 2026-05-05 08:39 | 40.53952 | 22.90413 | 35092 ft | 497 kts | 141° |
| 2026-05-05 08:40 | 40.48550 | 22.96092 | 35095 ft | 497 kts | 141° |
| 2026-05-05 08:40 | 40.43455 | 23.02192 | 35091 ft | 495 kts | 132° |
| 2026-05-05 08:41 | 40.38723 | 23.08771 | 35090 ft | 495 kts | 132° |
| 2026-05-05 08:41 | 40.33972 | 23.15322 | 35110 ft | 495 kts | 132° |
| 2026-05-05 08:42 | 40.29215 | 23.21855 | 35104 ft | 495 kts | 132° |
| 2026-05-05 08:42 | 40.24486 | 23.28354 | 35102 ft | 495 kts | 132° |
| 2026-05-05 08:43 | 40.19741 | 23.34876 | 35101 ft | 495 kts | 132° |
| 2026-05-05 08:43 | 40.14979 | 23.41396 | 35087 ft | 495 kts | 132° |
| 2026-05-05 08:44 | 40.10213 | 23.47900 | 35096 ft | 496 kts | 132° |
| 2026-05-05 08:44 | 40.05435 | 23.54410 | 35098 ft | 496 kts | 132° |
| 2026-05-05 08:45 | 40.00692 | 23.60874 | 35094 ft | 496 kts | 132° |
| 2026-05-05 08:45 | 39.95913 | 23.67365 | 35091 ft | 496 kts | 133° |
| 2026-05-05 08:46 | 39.91131 | 23.73832 | 35089 ft | 495 kts | 133° |
| 2026-05-05 08:46 | 39.86348 | 23.80293 | 35093 ft | 495 kts | 133° |
| 2026-05-05 08:47 | 39.81555 | 23.86756 | 35093 ft | 495 kts | 133° |
| 2026-05-05 08:47 | 39.76796 | 23.93154 | 35086 ft | 495 kts | 133° |
| 2026-05-05 08:48 | 39.72001 | 23.99596 | 35087 ft | 495 kts | 133° |
| 2026-05-05 08:48 | 39.67209 | 24.06028 | 35088 ft | 495 kts | 133° |
| 2026-05-05 08:49 | 39.62406 | 24.12464 | 35097 ft | 495 kts | 133° |
| 2026-05-05 08:49 | 39.57604 | 24.18873 | 35091 ft | 496 kts | 133° |
| 2026-05-05 08:50 | 39.52814 | 24.25244 | 35086 ft | 496 kts | 133° |
| 2026-05-05 08:50 | 39.48050 | 24.31560 | 35087 ft | 496 kts | 133° |
| 2026-05-05 08:51 | 39.43230 | 24.37941 | 35086 ft | 496 kts | 133° |
| 2026-05-05 08:51 | 39.38405 | 24.44320 | 35092 ft | 496 kts | 133° |
| 2026-05-05 08:52 | 39.33586 | 24.50696 | 35089 ft | 496 kts | 133° |
| 2026-05-05 08:52 | 39.28787 | 24.57095 | 35086 ft | 496 kts | 132° |
| 2026-05-05 08:53 | 39.24003 | 24.63508 | 35088 ft | 496 kts | 133° |
| 2026-05-05 08:53 | 39.19245 | 24.69871 | 35089 ft | 496 kts | 133° |
| 2026-05-05 08:54 | 39.14435 | 24.76267 | 35088 ft | 497 kts | 133° |
| 2026-05-05 08:54 | 39.09616 | 24.82651 | 35096 ft | 497 kts | 133° |
| 2026-05-05 08:55 | 39.04751 | 24.88994 | 35099 ft | 497 kts | 133° |
| 2026-05-05 08:55 | 38.99865 | 24.95293 | 35090 ft | 497 kts | 134° |
| 2026-05-05 08:56 | 38.94978 | 25.01594 | 35109 ft | 497 kts | 134° |
| 2026-05-05 08:56 | 38.90097 | 25.07909 | 35107 ft | 497 kts | 134° |
| 2026-05-05 08:57 | 38.85257 | 25.14149 | 35107 ft | 497 kts | 134° |
| 2026-05-05 08:57 | 38.80374 | 25.20423 | 35105 ft | 496 kts | 134° |
| 2026-05-05 08:58 | 38.75496 | 25.26677 | 35112 ft | 496 kts | 134° |
| 2026-05-05 08:58 | 38.70613 | 25.32925 | 35096 ft | 496 kts | 134° |
| 2026-05-05 08:59 | 38.65731 | 25.39171 | 35113 ft | 496 kts | 134° |
| 2026-05-05 08:59 | 38.60845 | 25.45395 | 35112 ft | 495 kts | 134° |
| 2026-05-05 09:00 | 38.55962 | 25.51608 | 35109 ft | 495 kts | 134° |
| 2026-05-05 09:00 | 38.51078 | 25.57823 | 35105 ft | 495 kts | 134° |
| 2026-05-05 09:01 | 38.46192 | 25.64022 | 35103 ft | 495 kts | 134° |
| 2026-05-05 09:01 | 38.41327 | 25.70166 | 35115 ft | 494 kts | 134° |
| 2026-05-05 09:02 | 38.36428 | 25.76339 | 35097 ft | 494 kts | 134° |
| 2026-05-05 09:02 | 38.31546 | 25.82516 | 35094 ft | 494 kts | 134° |
| 2026-05-05 09:03 | 38.26553 | 25.88450 | 35092 ft | 495 kts | 143° |
| 2026-05-05 09:03 | 38.20562 | 25.92681 | 35088 ft | 493 kts | 161° |
| 2026-05-05 09:04 | 38.14106 | 25.95608 | 35099 ft | 492 kts | 162° |
| 2026-05-05 09:04 | 38.07653 | 25.98551 | 35099 ft | 493 kts | 161° |
| 2026-05-05 09:05 | 38.01205 | 26.01499 | 35103 ft | 493 kts | 162° |
| 2026-05-05 09:05 | 37.94745 | 26.04439 | 35106 ft | 493 kts | 162° |
| 2026-05-05 09:06 | 37.88283 | 26.07354 | 35100 ft | 493 kts | 162° |
| 2026-05-05 09:06 | 37.81817 | 26.10279 | 35098 ft | 493 kts | 162° |
| 2026-05-05 09:07 | 37.75391 | 26.13183 | 35101 ft | 494 kts | 162° |
| 2026-05-05 09:07 | 37.68916 | 26.16101 | 35100 ft | 494 kts | 162° |
| 2026-05-05 09:08 | 37.62435 | 26.19015 | 35101 ft | 494 kts | 162° |
| 2026-05-05 09:08 | 37.55959 | 26.21913 | 35101 ft | 494 kts | 162° |
| 2026-05-05 09:09 | 37.49479 | 26.24817 | 35103 ft | 494 kts | 162° |
| 2026-05-05 09:09 | 37.43001 | 26.27714 | 35124 ft | 493 kts | 162° |
| 2026-05-05 09:10 | 37.36539 | 26.30600 | 35114 ft | 492 kts | 162° |
| 2026-05-05 09:10 | 37.30090 | 26.33474 | 35116 ft | 491 kts | 162° |
| 2026-05-05 09:11 | 37.23650 | 26.36331 | 35111 ft | 490 kts | 162° |
| 2026-05-05 09:11 | 37.17260 | 26.39166 | 35090 ft | 490 kts | 162° |
| 2026-05-05 09:12 | 37.10828 | 26.42017 | 35088 ft | 491 kts | 162° |
| 2026-05-05 09:12 | 37.04388 | 26.44865 | 35087 ft | 491 kts | 162° |
| 2026-05-05 09:13 | 36.97943 | 26.47722 | 35086 ft | 491 kts | 162° |
| 2026-05-05 09:13 | 36.91908 | 26.51680 | 35072 ft | 493 kts | 142° |
| 2026-05-05 09:13 | 36.89357 | 26.54543 | 35072 ft | 493 kts | 131° |
| 2026-05-05 09:14 | 36.87214 | 26.57884 | 34976 ft | 493 kts | 122° |
| 2026-05-05 09:14 | 36.85534 | 26.61588 | 34732 ft | 490 kts | 112° |
| 2026-05-05 09:14 | 36.84190 | 26.65506 | 34485 ft | 490 kts | 111° |
| 2026-05-05 09:14 | 36.82854 | 26.69422 | 34249 ft | 490 kts | 111° |
| 2026-05-05 09:15 | 36.81509 | 26.73337 | 33423 ft | 493 kts | 111° |
| 2026-05-05 09:15 | 36.80150 | 26.77284 | 32480 ft | 496 kts | 112° |
| 2026-05-05 09:15 | 36.78785 | 26.81237 | 31485 ft | 499 kts | 112° |
| 2026-05-05 09:15 | 36.77407 | 26.85217 | 30628 ft | 499 kts | 113° |
| 2026-05-05 09:16 | 36.76024 | 26.89197 | 29536 ft | 501 kts | 113° |
| 2026-05-05 09:16 | 36.74640 | 26.93181 | 28194 ft | 502 kts | 113° |
| 2026-05-05 09:16 | 36.73268 | 26.97130 | 27080 ft | 503 kts | 113° |
| 2026-05-05 09:16 | 36.71874 | 27.01143 | 25816 ft | 507 kts | 113° |
| 2026-05-05 09:17 | 36.70466 | 27.05197 | 24702 ft | 509 kts | 112° |
| 2026-05-05 09:17 | 36.69073 | 27.09214 | 23937 ft | 502 kts | 112° |
| 2026-05-05 09:17 | 36.67691 | 27.13193 | 22986 ft | 498 kts | 112° |
| 2026-05-05 09:17 | 36.66318 | 27.17132 | 22183 ft | 491 kts | 112° |
| 2026-05-05 09:18 | 36.64961 | 27.21005 | 21423 ft | 484 kts | 112° |
| 2026-05-05 09:18 | 36.63623 | 27.24826 | 20663 ft | 479 kts | 112° |
| 2026-05-05 09:18 | 36.62298 | 27.28609 | 19923 ft | 474 kts | 112° |
| 2026-05-05 09:18 | 36.60983 | 27.32351 | 19203 ft | 470 kts | 112° |
| 2026-05-05 09:19 | 36.59677 | 27.36062 | 18500 ft | 465 kts | 112° |
| 2026-05-05 09:19 | 36.58385 | 27.39733 | 17758 ft | 461 kts | 112° |
| 2026-05-05 09:19 | 36.57107 | 27.43361 | 17122 ft | 454 kts | 111° |
| 2026-05-05 09:19 | 36.55849 | 27.46931 | 16508 ft | 447 kts | 111° |
| 2026-05-05 09:20 | 36.54606 | 27.50451 | 15920 ft | 441 kts | 111° |
| 2026-05-05 09:20 | 36.53396 | 27.53867 | 15359 ft | 434 kts | 111° |
| 2026-05-05 09:20 | 36.52183 | 27.57282 | 14809 ft | 428 kts | 111° |
| 2026-05-05 09:20 | 36.50987 | 27.60648 | 14258 ft | 422 kts | 111° |
| 2026-05-05 09:21 | 36.49808 | 27.63968 | 13682 ft | 417 kts | 111° |
| 2026-05-05 09:21 | 36.48641 | 27.67243 | 13087 ft | 412 kts | 111° |
| 2026-05-05 09:21 | 36.47490 | 27.70471 | 12492 ft | 406 kts | 111° |
| 2026-05-05 09:21 | 36.46353 | 27.73660 | 11875 ft | 402 kts | 111° |
| 2026-05-05 09:22 | 36.45227 | 27.76822 | 11265 ft | 397 kts | 111° |
| 2026-05-05 09:22 | 36.44129 | 27.79898 | 11088 ft | 381 kts | 110° |
| 2026-05-05 09:22 | 36.43073 | 27.82850 | 10962 ft | 365 kts | 110° |
| 2026-05-05 09:22 | 36.42062 | 27.85673 | 10836 ft | 350 kts | 110° |
| 2026-05-05 09:23 | 36.41094 | 27.88374 | 10711 ft | 333 kts | 110° |
| 2026-05-05 09:23 | 36.40197 | 27.90875 | 10592 ft | 310 kts | 110° |
| 2026-05-05 09:23 | 36.39347 | 27.93240 | 10469 ft | 289 kts | 109° |
| 2026-05-05 09:23 | 36.38553 | 27.95448 | 10306 ft | 273 kts | 109° |
| 2026-05-05 09:24 | 36.37792 | 27.97571 | 9934 ft | 266 kts | 109° |
| 2026-05-05 09:24 | 36.37047 | 27.99651 | 9717 ft | 264 kts | 109° |
| 2026-05-05 09:24 | 36.36301 | 28.01741 | 9592 ft | 266 kts | 109° |
| 2026-05-05 09:24 | 36.35552 | 28.03851 | 9298 ft | 266 kts | 109° |
| 2026-05-05 09:25 | 36.34916 | 28.05937 | 9163 ft | 250 kts | 98° |
| 2026-05-05 09:25 | 36.34671 | 28.07988 | 9054 ft | 234 kts | 86° |
| 2026-05-05 09:25 | 36.34778 | 28.09954 | 8915 ft | 224 kts | 75° |
| 2026-05-05 09:25 | 36.35175 | 28.11785 | 8712 ft | 215 kts | 64° |
| 2026-05-05 09:26 | 36.35761 | 28.13563 | 7935 ft | 230 kts | 63° |
| 2026-05-05 09:26 | 36.36381 | 28.15405 | 7221 ft | 231 kts | 63° |
| 2026-05-05 09:26 | 36.36990 | 28.17222 | 6620 ft | 225 kts | 63° |
| 2026-05-05 09:26 | 36.37586 | 28.19001 | 5984 ft | 222 kts | 63° |
| 2026-05-05 09:27 | 36.38172 | 28.20760 | 5338 ft | 218 kts | 64° |
| 2026-05-05 09:27 | 36.38748 | 28.22495 | 4702 ft | 217 kts | 63° |
| 2026-05-05 09:27 | 36.39311 | 28.24186 | 4284 ft | 208 kts | 62° |
| 2026-05-05 09:27 | 36.39844 | 28.25797 | 4146 ft | 199 kts | 63° |
| 2026-05-05 09:28 | 36.40369 | 28.27382 | 4017 ft | 198 kts | 62° |
| 2026-05-05 09:28 | 36.40918 | 28.28961 | 3899 ft | 199 kts | 60° |
| 2026-05-05 09:28 | 36.41487 | 28.30541 | 3772 ft | 201 kts | 60° |
| 2026-05-05 09:28 | 36.42060 | 28.32121 | 3640 ft | 200 kts | 60° |
| 2026-05-05 09:29 | 36.42633 | 28.33699 | 3521 ft | 201 kts | 60° |
| 2026-05-05 09:29 | 36.43212 | 28.35290 | 3390 ft | 202 kts | 60° |
| 2026-05-05 09:29 | 36.43593 | 28.36340 | 3308 ft | 202 kts | 60° |
| 2026-05-05 09:29 | 36.44331 | 28.37773 | 3197 ft | 191 kts | 34° |
| 2026-05-05 09:30 | 36.45463 | 28.38520 | 3068 ft | 182 kts | 7° |
| 2026-05-05 09:30 | 36.46703 | 28.38494 | 2935 ft | 178 kts | 343° |
| 2026-05-05 09:30 | 36.47794 | 28.37744 | 2806 ft | 182 kts | 316° |
| 2026-05-05 09:30 | 36.48469 | 28.36422 | 2669 ft | 184 kts | 290° |
| 2026-05-05 09:31 | 36.48546 | 28.34846 | 2570 ft | 186 kts | 262° |
| 2026-05-05 09:31 | 36.47963 | 28.32819 | 2493 ft | 183 kts | 252° |
| 2026-05-05 09:31 | 36.47647 | 28.31876 | 2508 ft | 168 kts | 252° |
| 2026-05-05 09:31 | 36.47217 | 28.30616 | 2499 ft | 151 kts | 252° |
| 2026-05-05 09:32 | 36.46826 | 28.29462 | 2501 ft | 140 kts | 254° |
| 2026-05-05 09:32 | 36.46458 | 28.28358 | 2495 ft | 137 kts | 254° |
| 2026-05-05 09:32 | 36.46082 | 28.27277 | 2476 ft | 137 kts | 252° |
| 2026-05-05 09:32 | 36.45698 | 28.26211 | 2389 ft | 137 kts | 254° |
| 2026-05-05 09:33 | 36.45340 | 28.25126 | 2294 ft | 136 kts | 254° |
| 2026-05-05 09:33 | 36.44995 | 28.24036 | 2097 ft | 134 kts | 256° |
| 2026-05-05 09:33 | 36.44675 | 28.22946 | 1945 ft | 134 kts | 257° |
| 2026-05-05 09:33 | 36.44375 | 28.21848 | 1855 ft | 136 kts | 258° |
| 2026-05-05 09:34 | 36.44038 | 28.20746 | 1631 ft | 140 kts | 253° |
| 2026-05-05 09:34 | 36.43680 | 28.19623 | 1347 ft | 136 kts | 257° |
| 2026-05-05 09:34 | 36.43395 | 28.18523 | 1277 ft | 133 kts | 261° |
| 2026-05-05 09:34 | 36.43122 | 28.17423 | 1174 ft | 134 kts | 257° |
| 2026-05-05 09:35 | 36.42780 | 28.16344 | 1033 ft | 134 kts | 256° |
| 2026-05-05 09:35 | 36.42163 | 28.14174 | 667 ft | 133 kts | 255° |
| 2026-05-05 09:35 | 36.41848 | 28.13100 | 541 ft | 130 kts | 256° |
| 2026-05-05 09:36 | 36.41539 | 28.12052 | 372 ft | 130 kts | 253° |
| 2026-05-05 09:36 | 36.41232 | 28.10994 | 183 ft | 130 kts | 255° |
| 2026-05-05 09:36 | 36.40926 | 28.09942 | 37 ft | 125 kts | 256° |
| 2026-05-05 09:36 | 36.40672 | 28.09060 | 30 ft | 87 kts | 248° |
| 2026-05-05 09:37 | 36.40507 | 28.08501 | 27 ft | 59 kts | 249° |
| 2026-05-05 09:37 | 36.40384 | 28.08108 | 28 ft | 40 kts | 248° |
| 2026-05-05 09:37 | 36.40259 | 28.07931 | 28 ft | 17 kts | 220° |
| 2026-05-05 09:37 | 36.40172 | 28.07877 | 28 ft | 11 kts | 156° |
| 2026-05-05 09:38 | 36.40176 | 28.08011 | 28 ft | 23 kts | 67° |
| 2026-05-05 09:38 | 36.40229 | 28.08190 | 28 ft | 21 kts | 70° |
| 2026-05-05 09:38 | 36.40277 | 28.08356 | 28 ft | 20 kts | 70° |
| 2026-05-05 09:38 | 36.40322 | 28.08508 | 28 ft | 18 kts | 70° |
| 2026-05-05 09:39 | 36.40364 | 28.08649 | 28 ft | 17 kts | 70° |
| 2026-05-05 09:39 | 36.40397 | 28.08780 | 28 ft | 15 kts | 80° |
| 2026-05-05 09:39 | 36.40398 | 28.08906 | 28 ft | 14 kts | 94° |
| 2026-05-05 09:39 | 36.40406 | 28.09021 | 28 ft | 13 kts | 74° |
| 2026-05-05 09:40 | 36.40381 | 28.09077 | 28 ft | 7 kts | 161° |
| 2026-05-05 09:40 | 36.40353 | 28.09090 | 28 ft | 1 kts | 160° |
| 2026-05-05 09:40 | 36.40351 | 28.09091 | 28 ft | 0 kts | 160° |